Time;durP1;ratioP1;P1;durP2;ratioP2;P2;SDS_P1;SDS_P2;PMS_P1;PMS_P2;Temp;Humidity;BMP_temperature;BMP_pressure;BME280_temperature;BME280_humidity;BME280_pressure;Samples;Min_cycle;Max_cycle;Signal;HPM_P1;HPM_P2
2022/09/05 00:00:51;;;;;;;7.47;3.10;;;17.00;99.90;;;;;;5028821;28;20446;-75
2022/09/05 00:03:28;;;;;;;3.70;3.07;;;17.00;99.90;;;;;;5029324;28;20418;-76
2022/09/05 00:06:02;;;;;;;5.40;2.80;;;16.90;99.90;;;;;;5029015;28;20420;-75
2022/09/05 00:08:43;;;;;;;7.60;3.30;;;16.80;99.90;;;;;;5028881;28;20420;-75
2022/09/05 00:11:19;;;;;;;3.60;3.30;;;16.70;99.90;;;;;;5028869;28;20963;-75
2022/09/05 00:13:56;;;;;;;3.67;3.37;;;16.60;99.90;;;;;;5028755;28;20439;-75
2022/09/05 00:16:40;;;;;;;7.33;3.80;;;16.60;99.90;;;;;;5028936;28;20421;-75
2022/09/05 00:19:42;;;;;;;3.63;3.13;;;16.50;99.90;;;;;;5028994;28;20547;-75
2022/09/05 00:22:20;;;;;;;4.60;3.70;;;16.40;99.90;;;;;;5029084;28;20877;-74
2022/09/05 00:25:04;;;;;;;4.43;3.80;;;16.40;99.90;;;;;;5027799;28;20795;-76
2022/09/05 00:27:54;;;;;;;4.37;3.40;;;16.40;99.90;;;;;;5029133;28;20422;-75
2022/09/05 00:30:20;;;;;;;4.10;3.40;;;16.30;99.90;;;;;;5029137;28;20515;-75
2022/09/05 00:32:58;;;;;;;4.10;3.40;;;16.30;99.90;;;;;;5027758;28;20437;-75
2022/09/05 00:35:32;;;;;;;3.90;3.50;;;16.30;99.90;;;;;;5029144;28;20397;-75
2022/09/05 00:38:14;;;;;;;5.07;3.10;;;16.30;99.90;;;;;;5029510;28;20552;-74
2022/09/05 00:40:56;;;;;;;3.63;3.33;;;16.30;99.90;;;;;;5028698;28;20548;-75
2022/09/05 00:43:27;;;;;;;7.67;3.70;;;16.20;99.90;;;;;;5028479;28;20422;-74
2022/09/05 00:46:12;;;;;;;15.87;3.30;;;16.30;99.90;;;;;;5028405;28;20446;-75
2022/09/05 00:48:49;;;;;;;4.27;3.50;;;16.20;99.90;;;;;;5027021;28;20449;-75
2022/09/05 00:51:53;;;;;;;3.87;3.40;;;16.20;99.90;;;;;;5028261;28;20871;-74
2022/09/05 00:55:00;;;;;;;4.67;3.70;;;16.20;99.90;;;;;;5028593;28;20453;-75
2022/09/05 00:57:35;;;;;;;3.87;3.33;;;16.20;99.90;;;;;;5005241;28;21030;-75
2022/09/05 01:00:21;;;;;;;5.33;3.70;;;16.20;99.90;;;;;;5028356;28;20428;-75
2022/09/05 01:03:11;;;;;;;3.77;3.13;;;16.20;99.90;;;;;;5028314;28;20413;-75
2022/09/05 01:05:45;;;;;;;5.60;3.67;;;16.20;99.90;;;;;;5032047;28;20448;-76
2022/09/05 01:08:20;;;;;;;2.97;2.47;;;16.10;99.90;;;;;;5030527;28;21016;-74
2022/09/05 01:11:28;;;;;;;3.10;2.83;;;15.90;99.90;;;;;;5031906;28;20888;-74
2022/09/05 01:14:26;;;;;;;7.40;3.33;;;15.90;99.90;;;;;;5030559;28;20515;-76
2022/09/05 01:17:10;;;;;;;5.50;2.87;;;15.90;99.90;;;;;;5032068;28;20420;-76
2022/09/05 01:19:59;;;;;;;4.47;3.00;;;15.90;99.90;;;;;;5030500;28;20421;-76
2022/09/05 01:23:16;;;;;;;3.93;2.80;;;15.90;99.90;;;;;;5032042;28;20441;-75
2022/09/05 01:26:04;;;;;;;3.10;2.80;;;15.80;99.90;;;;;;5029371;28;20939;-75
2022/09/05 01:29:15;;;;;;;3.90;3.13;;;15.80;99.90;;;;;;5031790;28;20834;-74
2022/09/05 01:32:18;;;;;;;3.93;2.70;;;15.80;99.90;;;;;;4999070;28;21101;-75
2022/09/05 01:35:25;;;;;;;3.03;2.37;;;15.80;99.90;;;;;;5031942;28;21023;-76
2022/09/05 01:38:05;;;;;;;2.40;2.20;;;15.60;99.90;;;;;;5000833;28;20479;-76
2022/09/05 01:40:42;;;;;;;3.13;2.37;;;15.50;99.90;;;;;;5031596;28;20524;-77
2022/09/05 01:43:34;;;;;;;3.47;2.40;;;15.60;99.90;;;;;;5031576;28;20922;-76
2022/09/05 01:46:17;;;;;;;5.70;2.90;;;15.50;99.90;;;;;;5029266;28;20436;-76
2022/09/05 01:48:56;;;;;;;3.23;2.77;;;15.60;99.90;;;;;;5030012;28;20450;-77
2022/09/05 01:52:05;;;;;;;4.50;2.83;;;15.40;99.90;;;;;;5031482;28;20493;-76
2022/09/05 01:55:21;;;;;;;2.70;2.50;;;15.40;99.90;;;;;;5031249;28;20890;-76
2022/09/05 01:57:55;;;;;;;7.03;3.20;;;15.40;99.90;;;;;;5031401;28;20461;-77
2022/09/05 02:00:54;;;;;;;3.60;3.20;;;15.40;99.90;;;;;;5031373;28;20987;-76
2022/09/05 02:03:32;;;;;;;3.17;2.90;;;15.40;99.90;;;;;;5029713;28;20428;-76
2022/09/05 02:06:00;;;;;;;4.13;2.87;;;15.30;99.90;;;;;;5031463;28;20429;-75
2022/09/05 02:08:44;;;;;;;2.70;2.50;;;15.40;99.90;;;;;;5030899;28;20428;-74
2022/09/05 02:11:11;;;;;;;2.90;2.57;;;15.30;99.90;;;;;;5030993;28;20477;-75
2022/09/05 02:13:56;;;;;;;4.87;2.80;;;15.30;99.90;;;;;;5030994;28;20548;-75
2022/09/05 02:16:30;;;;;;;3.10;2.77;;;15.30;99.90;;;;;;5030028;28;20429;-75
2022/09/05 02:19:08;;;;;;;4.13;2.53;;;15.40;99.90;;;;;;5030923;28;21035;-75
2022/09/05 02:21:39;;;;;;;2.70;2.50;;;15.40;99.90;;;;;;5030760;28;20597;-75
2022/09/05 02:24:23;;;;;;;8.10;2.63;;;15.40;99.90;;;;;;5030713;28;20469;-75
2022/09/05 02:27:13;;;;;;;6.60;3.00;;;15.30;99.90;;;;;;5031313;28;20412;-75
2022/09/05 02:29:55;;;;;;;2.70;2.07;;;15.30;99.90;;;;;;5031074;28;20421;-75
2022/09/05 02:32:27;;;;;;;4.20;2.70;;;15.30;99.90;;;;;;5029052;28;20534;-75
2022/09/05 02:35:22;;;;;;;3.20;2.80;;;15.30;99.90;;;;;;5030994;28;20416;-75
2022/09/05 02:38:18;;;;;;;5.70;2.27;;;15.20;99.90;;;;;;5030621;28;20468;-76
2022/09/05 02:40:53;;;;;;;5.13;2.57;;;15.10;99.90;;;;;;5030683;28;20448;-75
2022/09/05 02:43:42;;;;;;;4.37;2.90;;;15.20;99.90;;;;;;5030566;28;20424;-75
2022/09/05 02:46:33;;;;;;;6.50;2.83;;;15.20;99.90;;;;;;5030572;28;20429;-74
2022/09/05 02:49:10;;;;;;;2.83;2.63;;;15.20;99.90;;;;;;5028586;28;20435;-75
2022/09/05 02:51:48;;;;;;;7.40;3.10;;;15.20;99.90;;;;;;5028781;28;20457;-75
2022/09/05 02:54:21;;;;;;;3.43;2.97;;;15.20;99.90;;;;;;5030271;28;20948;-75
2022/09/05 02:56:50;;;;;;;2.50;2.30;;;15.30;99.90;;;;;;5029983;28;20461;-75
2022/09/05 02:59:40;;;;;;;3.93;2.60;;;15.30;99.90;;;;;;5029859;28;20972;-75
2022/09/05 03:02:34;;;;;;;4.27;2.77;;;15.30;99.90;;;;;;5029743;28;20427;-75
2022/09/05 03:05:11;;;;;;;3.77;2.60;;;15.20;99.90;;;;;;5029630;28;20407;-74
2022/09/05 03:08:31;;;;;;;2.97;2.63;;;15.20;99.90;;;;;;5029783;28;20496;-74
2022/09/05 03:11:21;;;;;;;5.07;2.60;;;15.20;99.90;;;;;;4987308;28;20472;-74
2022/09/05 03:14:20;;;;;;;3.53;2.90;;;15.00;99.90;;;;;;5027792;28;20439;-75
2022/09/05 03:17:25;;;;;;;3.00;2.70;;;14.90;99.90;;;;;;5029880;28;20762;-75
2022/09/05 03:19:53;;;;;;;2.87;2.10;;;14.90;99.90;;;;;;5029619;28;20427;-74
2022/09/05 03:22:41;;;;;;;3.73;2.93;;;14.90;99.90;;;;;;5029423;28;20551;-74
2022/09/05 03:25:35;;;;;;;4.40;3.20;;;14.80;99.90;;;;;;5029567;28;20416;-74
2022/09/05 03:28:29;;;;;;;5.70;2.57;;;14.70;99.90;;;;;;5027617;28;20431;-74
2022/09/05 03:31:33;;;;;;;3.10;2.80;;;14.70;99.90;;;;;;5029472;28;20524;-74
2022/09/05 03:34:11;;;;;;;4.30;2.90;;;14.60;99.90;;;;;;5029490;28;20421;-74
2022/09/05 03:37:04;;;;;;;6.00;2.73;;;14.60;99.90;;;;;;5029483;28;20532;-75
2022/09/05 03:39:56;;;;;;;4.60;3.30;;;14.70;99.90;;;;;;5029512;28;20435;-74
2022/09/05 03:42:56;;;;;;;3.33;2.83;;;14.80;99.90;;;;;;5029681;28;20551;-74
2022/09/05 03:45:56;;;;;;;5.60;3.30;;;14.80;99.90;;;;;;5029052;28;20421;-73
2022/09/05 03:48:27;;;;;;;5.23;3.10;;;14.90;99.90;;;;;;5006840;28;20550;-73
2022/09/05 03:50:59;;;;;;;3.60;3.17;;;14.80;99.90;;;;;;5029213;28;20938;-74
2022/09/05 03:53:53;;;;;;;3.50;3.03;;;14.80;99.90;;;;;;5027381;28;20524;-74
2022/09/05 03:56:38;;;;;;;6.67;3.00;;;14.80;99.90;;;;;;5029041;28;20780;-74
2022/09/05 03:59:40;;;;;;;2.90;2.70;;;14.70;99.90;;;;;;5029004;28;20578;-74
2022/09/05 04:02:09;;;;;;;2.90;2.70;;;14.70;99.90;;;;;;5029042;28;20524;-74
2022/09/05 04:04:41;;;;;;;2.80;2.40;;;14.70;99.90;;;;;;5029044;28;20425;-74
2022/09/05 04:07:22;;;;;;;4.63;3.50;;;14.70;99.90;;;;;;5028749;28;20417;-74
2022/09/05 04:10:04;;;;;;;4.43;4.03;;;14.60;99.90;;;;;;5028948;28;20986;-74
2022/09/05 04:12:37;;;;;;;3.73;3.37;;;14.70;99.90;;;;;;5029031;28;21155;-74
2022/09/05 04:15:26;;;;;;;4.53;3.73;;;14.60;99.90;;;;;;5028613;28;20417;-74
2022/09/05 04:17:56;;;;;;;4.63;3.53;;;14.60;99.90;;;;;;5028149;28;20455;-74
2022/09/05 04:20:46;;;;;;;6.33;3.90;;;14.70;99.90;;;;;;5028616;28;20415;-74
2022/09/05 04:23:27;;;;;;;8.10;3.20;;;14.80;99.90;;;;;;5028653;28;20408;-74
2022/09/05 04:26:16;;;;;;;3.33;3.03;;;14.80;99.90;;;;;;5028507;28;20397;-74
2022/09/05 04:29:15;;;;;;;3.80;3.00;;;14.80;99.90;;;;;;5028615;28;20750;-73
2022/09/05 04:31:55;;;;;;;5.00;3.00;;;14.70;99.90;;;;;;5028923;28;20823;-75
2022/09/05 04:34:21;;;;;;;6.43;3.40;;;14.70;99.90;;;;;;5028791;28;20778;-75
2022/09/05 04:36:57;;;;;;;3.97;3.20;;;14.60;99.90;;;;;;5029475;28;20505;-75
2022/09/05 04:39:25;;;;;;;4.60;2.93;;;14.60;99.90;;;;;;5031670;28;20226;-75
2022/09/05 04:42:03;;;;;;;3.73;3.00;;;14.60;99.90;;;;;;5033911;28;20519;-75
2022/09/05 04:44:55;;;;;;;8.40;3.27;;;14.60;99.90;;;;;;5032859;28;20461;-75
2022/09/05 04:47:34;;;;;;;6.23;3.37;;;14.60;99.90;;;;;;5023830;28;20932;-75
2022/09/05 04:50:12;;;;;;;2.80;2.60;;;14.50;99.90;;;;;;5031174;28;20420;-75
2022/09/05 04:53:11;;;;;;;3.03;2.73;;;14.60;99.90;;;;;;5032722;28;20693;-75
2022/09/05 04:55:42;;;;;;;4.67;2.60;;;14.60;99.90;;;;;;5032572;28;20733;-75
2022/09/05 04:58:35;;;;;;;3.60;2.90;;;14.60;99.90;;;;;;5030757;28;20459;-76
2022/09/05 05:01:11;;;;;;;4.80;3.30;;;14.60;99.90;;;;;;5032299;28;20981;-75
2022/09/05 05:03:38;;;;;;;3.03;2.80;;;14.60;99.90;;;;;;5031558;28;20443;-75
2022/09/05 05:06:16;;;;;;;3.50;3.20;;;14.60;99.90;;;;;;5031670;28;20908;-75
2022/09/05 05:08:47;;;;;;;6.27;3.43;;;14.60;99.90;;;;;;5031700;28;20410;-75
2022/09/05 05:11:23;;;;;;;3.70;3.40;;;14.70;99.90;;;;;;5031783;28;20427;-75
2022/09/05 05:14:03;;;;;;;7.70;3.20;;;14.70;99.90;;;;;;5032298;28;20475;-75
2022/09/05 05:16:38;;;;;;;4.60;3.30;;;14.70;99.90;;;;;;5032579;28;20839;-75
2022/09/05 05:19:29;;;;;;;3.17;2.80;;;14.70;99.90;;;;;;5032371;28;20542;-76
2022/09/05 05:21:59;;;;;;;4.00;2.93;;;14.70;99.90;;;;;;5026934;28;20983;-75
2022/09/05 05:24:35;;;;;;;3.20;2.90;;;14.80;99.90;;;;;;5032051;28;20421;-75
2022/09/05 05:27:20;;;;;;;3.50;3.20;;;14.80;99.90;;;;;;5032262;28;20841;-75
2022/09/05 05:29:46;;;;;;;3.97;3.00;;;14.80;99.90;;;;;;5032391;28;20503;-75
2022/09/05 05:32:23;;;;;;;4.30;3.57;;;14.90;99.90;;;;;;5031038;28;20864;-76
2022/09/05 05:34:56;;;;;;;5.63;3.67;;;14.90;99.90;;;;;;5031918;28;20178;-75
2022/09/05 05:37:35;;;;;;;8.57;3.53;;;14.90;99.90;;;;;;5031155;28;20562;-75
2022/09/05 05:40:24;;;;;;;5.67;3.53;;;15.00;99.90;;;;;;5029019;28;21012;-75
2022/09/05 05:42:50;;;;;;;5.30;3.73;;;15.10;99.90;;;;;;5030630;28;20442;-75
2022/09/05 05:45:25;;;;;;;7.00;2.93;;;15.20;99.90;;;;;;5030470;28;20505;-76
2022/09/05 05:48:02;;;;;;;9.20;2.93;;;15.30;99.90;;;;;;5030109;28;20422;-75
2022/09/05 05:50:42;;;;;;;3.20;2.80;;;15.30;99.90;;;;;;5029887;28;20432;-75
2022/09/05 05:53:19;;;;;;;2.60;2.40;;;15.60;99.90;;;;;;5030165;28;20930;-75
2022/09/05 05:55:57;;;;;;;5.07;3.10;;;15.70;99.90;;;;;;5030307;28;20831;-75
2022/09/05 05:59:00;;;;;;;3.53;3.23;;;15.80;99.90;;;;;;5028427;28;20591;-76
2022/09/05 06:01:47;;;;;;;3.57;2.70;;;15.90;99.90;;;;;;5029847;28;20430;-75
2022/09/05 06:04:15;;;;;;;3.33;2.43;;;16.10;99.90;;;;;;5028575;28;20421;-74
2022/09/05 06:07:00;;;;;;;4.60;4.20;;;16.10;99.90;;;;;;5030220;28;20445;-75
2022/09/05 06:09:53;;;;;;;4.90;3.57;;;16.30;99.90;;;;;;5029444;28;20434;-75
2022/09/05 06:13:00;;;;;;;4.70;3.50;;;16.40;99.90;;;;;;5030216;28;20458;-75
2022/09/05 06:16:00;;;;;;;8.10;3.50;;;16.50;99.90;;;;;;5028385;28;20421;-75
2022/09/05 06:19:03;;;;;;;4.40;3.00;;;16.70;99.90;;;;;;5029895;28;20474;-75
2022/09/05 06:21:37;;;;;;;5.60;3.37;;;16.80;99.90;;;;;;5029903;28;20433;-75
2022/09/05 06:24:15;;;;;;;3.57;2.23;;;16.80;99.90;;;;;;5029735;28;20396;-75
2022/09/05 06:26:59;;;;;;;3.73;2.87;;;17.10;99.90;;;;;;5028156;28;20481;-75
2022/09/05 06:29:48;;;;;;;6.73;2.50;;;17.30;99.90;;;;;;5030001;28;20792;-75
2022/09/05 06:32:51;;;;;;;3.00;2.70;;;17.70;99.90;;;;;;5029398;28;20815;-75
2022/09/05 06:35:41;;;;;;;6.83;2.60;;;18.10;99.90;;;;;;5029365;28;20416;-75
2022/09/05 06:38:28;;;;;;;3.40;2.63;;;18.50;99.90;;;;;;5029520;28;20461;-75
2022/09/05 06:41:53;;;;;;;6.80;2.67;;;18.50;99.90;;;;;;5029315;28;20428;-75
2022/09/05 06:44:36;;;;;;;3.03;2.83;;;18.30;99.90;;;;;;4987440;28;20757;-75
2022/09/05 06:47:15;;;;;;;2.83;2.50;;;18.30;99.90;;;;;;4987597;28;20420;-76
2022/09/05 06:50:12;;;;;;;3.60;2.90;;;18.30;99.90;;;;;;5022203;28;20453;-76
2022/09/05 06:53:05;;;;;;;3.00;2.40;;;18.20;99.90;;;;;;5026261;28;20430;-75
2022/09/05 06:56:01;;;;;;;2.80;2.60;;;18.20;99.90;;;;;;5029324;28;20410;-76
2022/09/05 06:58:45;;;;;;;3.53;3.00;;;18.10;99.90;;;;;;5011036;28;20486;-76
2022/09/05 07:01:12;;;;;;;7.23;3.67;;;18.10;99.90;;;;;;5029183;28;20790;-76
2022/09/05 07:04:17;;;;;;;4.73;3.20;;;18.10;99.90;;;;;;5029165;28;20434;-76
2022/09/05 07:07:01;;;;;;;5.57;3.10;;;18.00;99.90;;;;;;5016959;28;20428;-76
2022/09/05 07:10:07;;;;;;;4.03;3.20;;;18.00;99.90;;;;;;5029283;28;20431;-76
2022/09/05 07:12:55;;;;;;;5.53;2.77;;;18.00;99.90;;;;;;5028292;28;20886;-75
2022/09/05 07:15:34;;;;;;;7.50;5.23;;;18.00;99.90;;;;;;5029238;28;20415;-76
2022/09/05 07:18:06;;;;;;;4.47;3.10;;;18.10;99.90;;;;;;5028990;28;20468;-76
2022/09/05 07:20:52;;;;;;;2.87;2.50;;;18.00;99.90;;;;;;5028799;28;20430;-75
2022/09/05 07:23:43;;;;;;;4.57;2.50;;;18.10;99.90;;;;;;5016475;28;20935;-76
2022/09/05 07:26:09;;;;;;;6.03;2.87;;;18.10;99.90;;;;;;5028299;28;20416;-76
2022/09/05 07:28:41;;;;;;;2.87;2.40;;;18.20;99.90;;;;;;5028030;28;20479;-75
2022/09/05 07:31:21;;;;;;;3.27;2.97;;;18.30;99.90;;;;;;5026497;28;20476;-75
2022/09/05 07:33:48;;;;;;;3.97;3.00;;;18.40;99.90;;;;;;5026174;28;20423;-76
2022/09/05 07:36:18;;;;;;;3.17;2.80;;;18.40;99.90;;;;;;5027805;28;20419;-75
2022/09/05 07:38:49;;;;;;;3.23;3.03;;;18.40;99.90;;;;;;5027536;28;20847;-76
2022/09/05 07:41:23;;;;;;;2.57;2.37;;;18.50;99.90;;;;;;5027696;28;20944;-75
2022/09/05 07:43:54;;;;;;;5.93;3.60;;;18.50;99.90;;;;;;5027603;28;20923;-76
2022/09/05 07:46:26;;;;;;;4.73;3.27;;;18.60;99.90;;;;;;5027611;28;20463;-76
2022/09/05 07:48:59;;;;;;;2.70;2.50;;;18.70;99.90;;;;;;5027814;28;20422;-75
2022/09/05 07:51:28;;;;;;;4.33;2.53;;;18.80;99.90;;;;;;5026321;28;20558;-76
2022/09/05 07:54:09;;;;;;;7.70;3.10;;;18.90;99.90;;;;;;5026382;28;20427;-76
2022/09/05 07:57:03;;;;;;;3.43;2.83;;;18.90;99.90;;;;;;5026336;28;20544;-75
2022/09/05 07:59:32;;;;;;;4.17;2.33;;;19.10;99.90;;;;;;5027759;28;20791;-76
2022/09/05 08:02:00;;;;;;;5.00;2.30;;;19.10;99.90;;;;;;5028761;28;20423;-76
2022/09/05 08:04:34;;;;;;;2.40;2.20;;;19.30;99.90;;;;;;5026490;28;20428;-75
2022/09/05 08:07:09;;;;;;;4.33;2.70;;;19.40;99.90;;;;;;5028291;28;20472;-76
2022/09/05 08:09:37;;;;;;;8.03;2.70;;;19.50;99.90;;;;;;5027967;28;20502;-76
2022/09/05 08:12:29;;;;;;;4.93;2.57;;;19.60;99.90;;;;;;5027445;28;20434;-76
2022/09/05 08:15:07;;;;;;;6.80;2.30;;;19.70;99.90;;;;;;5026622;28;20549;-76
2022/09/05 08:17:51;;;;;;;5.30;2.40;;;19.80;99.90;;;;;;5027489;28;20465;-75
2022/09/05 08:20:29;;;;;;;3.37;2.20;;;20.00;99.90;;;;;;5027439;28;20441;-76
2022/09/05 08:23:07;;;;;;;3.90;2.60;;;20.10;99.90;;;;;;5027657;28;20569;-76
2022/09/05 08:25:39;;;;;;;8.63;2.37;;;20.30;99.90;;;;;;5027529;28;20418;-75
2022/09/05 08:28:18;;;;;;;3.70;2.57;;;20.50;99.90;;;;;;5027373;28;20425;-75
2022/09/05 08:30:52;;;;;;;4.73;2.67;;;20.60;99.90;;;;;;5027586;28;20852;-76
2022/09/05 08:33:24;;;;;;;5.73;2.73;;;20.80;99.90;;;;;;5027489;28;20859;-76
2022/09/05 08:36:01;;;;;;;4.30;2.20;;;21.00;99.90;;;;;;5027659;28;20430;-76
2022/09/05 08:38:31;;;;;;;2.63;2.20;;;21.10;99.90;;;;;;5027491;28;20540;-75
2022/09/05 08:41:29;;;;;;;6.13;2.57;;;21.10;99.90;;;;;;5027277;28;20938;-76
2022/09/05 08:44:20;;;;;;;2.80;2.50;;;21.30;99.90;;;;;;5026076;28;20418;-76
2022/09/05 08:46:59;;;;;;;4.50;2.80;;;21.50;99.90;;;;;;5027552;28;20420;-75
2022/09/05 08:49:33;;;;;;;2.83;2.30;;;21.60;99.90;;;;;;5025991;28;20931;-76
2022/09/05 08:52:25;;;;;;;2.37;2.17;;;21.80;99.90;;;;;;5027112;28;20436;-76
2022/09/05 08:55:05;;;;;;;3.33;2.50;;;22.00;99.90;;;;;;5027164;28;20416;-76
2022/09/05 08:57:49;;;;;;;3.77;2.70;;;22.10;99.90;;;;;;5026893;28;20941;-76
2022/09/05 09:00:18;;;;;;;5.70;2.40;;;22.30;99.90;;;;;;5026898;28;20834;-76
2022/09/05 09:03:12;;;;;;;8.23;2.40;;;22.50;99.90;;;;;;5027006;28;20425;-75
2022/09/05 09:06:19;;;;;;;4.03;3.07;;;22.80;99.90;;;;;;5026884;28;20427;-76
2022/09/05 09:09:14;;;;;;;5.10;2.70;;;23.10;99.90;;;;;;5027166;28;20473;-76
2022/09/05 09:11:56;;;;;;;3.43;2.47;;;23.50;99.90;;;;;;5026787;28;20442;-76
2022/09/05 09:14:34;;;;;;;6.20;2.30;;;23.90;99.90;;;;;;5025338;28;20434;-76
2022/09/05 09:17:35;;;;;;;11.60;2.90;;;24.20;99.90;;;;;;5027090;28;20417;-76
2022/09/05 09:20:19;;;;;;;5.10;2.30;;;24.50;99.90;;;;;;5026961;28;20437;-76
2022/09/05 09:23:02;;;;;;;7.90;2.37;;;25.00;99.90;;;;;;5026866;28;20432;-76
2022/09/05 09:25:38;;;;;;;5.13;2.23;;;25.40;99.90;;;;;;5028723;28;21025;-76
2022/09/05 09:28:12;;;;;;;4.70;2.73;;;25.80;99.90;;;;;;5030802;28;21024;-76
2022/09/05 09:30:45;;;;;;;4.53;2.30;;;26.00;99.90;;;;;;5030530;28;20433;-76
2022/09/05 09:33:20;;;;;;;4.03;2.67;;;26.50;99.90;;;;;;5029846;28;20479;-76
2022/09/05 09:36:03;;;;;;;3.00;2.50;;;26.70;99.90;;;;;;5031144;28;20417;-75
2022/09/05 09:38:32;;;;;;;2.37;2.17;;;27.00;99.90;;;;;;5031184;28;20473;-75
2022/09/05 09:41:06;;;;;;;4.53;2.63;;;27.40;99.90;;;;;;5031052;28;20532;-76
2022/09/05 09:43:56;;;;;;;3.10;2.30;;;27.70;99.90;;;;;;5030967;28;20412;-76
2022/09/05 09:46:37;;;;;;;2.97;2.40;;;28.00;99.90;;;;;;5030716;28;20502;-76
2022/09/05 09:49:26;;;;;;;4.60;2.63;;;28.50;99.90;;;;;;5030761;28;20477;-75
2022/09/05 09:51:55;;;;;;;4.03;2.50;;;28.70;99.10;;;;;;5024798;28;20453;-75
2022/09/05 09:54:41;;;;;;;4.40;2.20;;;29.00;97.90;;;;;;5028986;28;20512;-75
2022/09/05 09:57:27;;;;;;;2.80;2.53;;;29.20;96.80;;;;;;5030959;28;20506;-75
2022/09/05 10:00:14;;;;;;;5.57;2.10;;;29.20;95.80;;;;;;5030557;28;20990;-75
2022/09/05 10:02:51;;;;;;;2.10;1.90;;;29.60;94.10;;;;;;5030560;28;20422;-75
2022/09/05 10:05:31;;;;;;;2.47;2.27;;;29.60;93.40;;;;;;5030381;28;20864;-76
2022/09/05 10:08:14;;;;;;;2.23;2.00;;;29.90;93.60;;;;;;5030507;28;20415;-76
2022/09/05 10:11:02;;;;;;;2.30;2.10;;;30.00;92.40;;;;;;5030429;28;20541;-76
2022/09/05 10:13:37;;;;;;;2.73;2.10;;;30.40;91.90;;;;;;5030452;28;20435;-75
2022/09/05 10:16:24;;;;;;;2.23;2.00;;;30.50;91.70;;;;;;5030001;28;20418;-76
2022/09/05 10:19:27;;;;;;;4.10;2.60;;;30.70;91.70;;;;;;5030253;28;20545;-75
2022/09/05 10:22:22;;;;;;;3.53;2.10;;;30.90;92.10;;;;;;5029972;28;20427;-76
2022/09/05 10:25:29;;;;;;;2.90;2.03;;;31.20;89.20;;;;;;5030202;28;20414;-76
2022/09/05 10:28:05;;;;;;;5.50;2.50;;;31.20;88.80;;;;;;4989138;28;20523;-76
2022/09/05 10:30:46;;;;;;;6.10;2.53;;;31.40;90.20;;;;;;4988005;28;21002;-74
2022/09/05 10:33:37;;;;;;;3.20;2.20;;;31.40;88.60;;;;;;5014469;28;20493;-75
2022/09/05 10:36:21;;;;;;;3.43;2.27;;;31.50;88.10;;;;;;5028176;28;20423;-74
2022/09/05 10:39:06;;;;;;;3.30;2.33;;;31.70;85.50;;;;;;5030120;28;21047;-75
2022/09/05 10:42:05;;;;;;;1.80;1.70;;;31.60;87.00;;;;;;5030108;28;20435;-74
2022/09/05 10:44:44;;;;;;;6.73;2.13;;;31.80;83.80;;;;;;5025999;28;20791;-75
2022/09/05 10:47:56;;;;;;;2.67;2.43;;;31.90;84.60;;;;;;5030563;28;20639;-75
2022/09/05 10:50:32;;;;;;;3.20;2.03;;;32.00;83.10;;;;;;4988306;28;20433;-74
2022/09/05 10:53:19;;;;;;;2.67;2.23;;;32.10;82.80;;;;;;4988454;28;20576;-74
2022/09/05 10:56:05;;;;;;;2.90;2.40;;;32.00;81.80;;;;;;5019200;28;20431;-74
2022/09/05 10:58:49;;;;;;;2.57;2.37;;;32.00;81.70;;;;;;5030376;28;20852;-75
2022/09/05 11:01:30;;;;;;;5.47;2.30;;;32.10;80.50;;;;;;5028801;28;20485;-75
2022/09/05 11:04:04;;;;;;;5.80;2.77;;;32.30;78.90;;;;;;5030280;28;20442;-76
2022/09/05 11:06:52;;;;;;;4.00;2.37;;;32.10;78.20;;;;;;5030235;28;20720;-76
2022/09/05 11:09:43;;;;;;;2.40;2.20;;;32.20;79.10;;;;;;5030102;28;20426;-75
2022/09/05 11:12:35;;;;;;;3.37;2.70;;;32.20;78.60;;;;;;5024178;28;20451;-75
2022/09/05 11:15:19;;;;;;;1.70;1.60;;;32.40;78.30;;;;;;5029547;28;20412;-76
2022/09/05 11:18:15;;;;;;;2.00;1.83;;;32.50;79.30;;;;;;5029232;28;20486;-75
2022/09/05 11:20:55;;;;;;;3.20;2.10;;;32.60;77.40;;;;;;5023421;28;20497;-75
2022/09/05 11:23:45;;;;;;;2.50;2.40;;;32.60;76.40;;;;;;5031676;28;20399;-75
2022/09/05 11:26:42;;;;;;;5.50;2.23;;;32.70;75.70;;;;;;5030114;28;20447;-74
2022/09/05 11:29:16;;;;;;;1.93;1.83;;;32.70;75.10;;;;;;5026270;28;20489;-74
2022/09/05 11:32:10;;;;;;;3.47;2.27;;;32.70;76.20;;;;;;5029535;28;20435;-74
2022/09/05 11:34:48;;;;;;;2.87;2.50;;;32.70;75.60;;;;;;5030523;28;20518;-76
2022/09/05 11:37:40;;;;;;;2.87;2.57;;;32.50;73.80;;;;;;5028805;28;20431;-73
2022/09/05 11:40:19;;;;;;;3.33;2.30;;;32.70;71.70;;;;;;5014325;28;20880;-76
2022/09/05 11:43:11;;;;;;;2.80;2.27;;;32.80;71.30;;;;;;5042575;28;20446;-74
2022/09/05 11:45:51;;;;;;;2.33;2.23;;;32.70;72.10;;;;;;5055292;28;20420;-74
2022/09/05 11:48:35;;;;;;;2.00;1.90;;;32.90;73.60;;;;;;5049444;28;20446;-76
2022/09/05 11:51:28;;;;;;;2.37;1.90;;;32.90;72.10;;;;;;5030967;28;20877;-75
2022/09/05 11:54:27;;;;;;;2.90;2.20;;;32.80;68.60;;;;;;5029860;28;20415;-75
2022/09/05 11:57:12;;;;;;;1.73;1.63;;;32.80;68.80;;;;;;5029502;28;20403;-75
2022/09/05 11:59:49;;;;;;;1.93;1.83;;;32.80;68.50;;;;;;5028810;28;20419;-76
2022/09/05 12:02:37;;;;;;;2.00;1.90;;;32.80;66.30;;;;;;5028795;28;20422;-75
2022/09/05 12:05:06;;;;;;;2.00;1.80;;;32.70;65.30;;;;;;5028887;28;20570;-78
2022/09/05 12:07:44;;;;;;;2.20;2.00;;;32.60;62.90;;;;;;5027641;28;20564;-77
2022/09/05 12:10:30;;;;;;;3.07;1.53;;;32.50;64.80;;;;;;5028969;28;20416;-77
2022/09/05 12:13:22;;;;;;;2.47;1.90;;;32.20;59.70;;;;;;5028811;28;20439;-76
2022/09/05 12:15:48;;;;;;;3.17;1.70;;;31.60;60.80;;;;;;5029302;28;20415;-77
2022/09/05 12:18:14;;;;;;;3.10;2.27;;;31.80;63.50;;;;;;5028004;28;20578;-78
2022/09/05 12:21:28;;;;;;;1.70;1.60;;;31.30;62.80;;;;;;5029393;28;20513;-77
2022/09/05 12:24:21;;;;;;;7.13;1.80;;;31.70;63.80;;;;;;5014853;28;20184;-77
2022/09/05 12:26:58;;;;;;;1.90;1.43;;;32.00;65.00;;;;;;5029269;28;21250;-78
2022/09/05 12:29:26;;;;;;;1.57;1.40;;;32.30;62.70;;;;;;5029272;28;20407;-76
2022/09/05 12:31:57;;;;;;;5.00;1.87;;;32.40;60.20;;;;;;5029155;28;20438;-77
2022/09/05 12:34:54;;;;;;;1.80;1.70;;;32.50;61.90;;;;;;5028661;28;20481;-77
2022/09/05 12:37:26;;;;;;;2.40;1.73;;;32.60;58.60;;;;;;5027856;28;20449;-77
2022/09/05 12:40:12;;;;;;;2.10;1.60;;;32.40;58.30;;;;;;5029054;28;20778;-76
2022/09/05 12:42:41;;;;;;;2.07;1.70;;;32.30;58.00;;;;;;5028188;28;20446;-77
2022/09/05 12:45:39;;;;;;;1.97;1.50;;;32.30;58.80;;;;;;5029052;28;20437;-78
2022/09/05 12:48:40;;;;;;;2.13;1.67;;;32.30;56.60;;;;;;5029406;28;21166;-77
2022/09/05 12:51:27;;;;;;;2.40;1.60;;;32.30;56.40;;;;;;5027356;28;20499;-76
2022/09/05 12:54:01;;;;;;;2.30;1.90;;;32.30;58.60;;;;;;5029031;28;20423;-77
2022/09/05 12:56:32;;;;;;;1.53;1.40;;;32.10;56.30;;;;;;5027580;28;21022;-77
2022/09/05 12:59:01;;;;;;;1.80;1.70;;;32.20;57.40;;;;;;5026340;28;20497;-78
2022/09/05 13:01:37;;;;;;;1.90;1.80;;;32.30;59.10;;;;;;5031634;28;20928;-78
2022/09/05 13:04:20;;;;;;;2.53;1.70;;;32.10;56.70;;;;;;5032008;28;20418;-78
2022/09/05 13:07:11;;;;;;;4.77;2.10;;;32.30;56.20;;;;;;5031521;28;20465;-76
2022/09/05 13:09:41;;;;;;;1.77;1.67;;;32.40;55.90;;;;;;5025558;28;20978;-76
2022/09/05 13:12:12;;;;;;;3.17;1.77;;;32.30;56.60;;;;;;5031397;28;21168;-79
2022/09/05 13:15:05;;;;;;;2.00;1.67;;;32.30;55.60;;;;;;5031739;28;20437;-74
2022/09/05 13:17:57;;;;;;;7.33;1.70;;;32.20;59.30;;;;;;5032069;28;20426;-77
2022/09/05 13:20:35;;;;;;;4.40;1.93;;;32.00;55.10;;;;;;5029732;28;20422;-77
2022/09/05 13:23:26;;;;;;;1.90;1.70;;;31.80;56.00;;;;;;5031517;28;20846;-76
2022/09/05 13:26:12;;;;;;;3.40;1.63;;;31.90;57.60;;;;;;5031332;28;20837;-77
2022/09/05 13:28:50;;;;;;;3.00;1.90;;;31.80;55.80;;;;;;5031373;28;20523;-75
2022/09/05 13:31:55;;;;;;;1.70;1.60;;;31.90;58.00;;;;;;5031283;28;20446;-76
2022/09/05 13:34:42;;;;;;;3.93;1.67;;;31.80;57.60;;;;;;5030116;28;20427;-77
2022/09/05 13:38:09;;;;;;;3.10;1.87;;;31.50;56.30;;;;;;5031655;28;20911;-76
2022/09/05 13:40:40;;;;;;;1.70;1.40;;;31.40;58.20;;;;;;4989297;28;20452;-77
2022/09/05 13:43:10;;;;;;;2.17;1.90;;;31.60;58.40;;;;;;4988554;28;20520;-75
2022/09/05 13:46:05;;;;;;;1.70;1.60;;;31.70;57.30;;;;;;5026538;28;20431;-76
2022/09/05 13:48:48;;;;;;;2.37;1.60;;;31.50;57.80;;;;;;5028119;28;20427;-76
2022/09/05 13:51:30;;;;;;;4.40;3.67;;;31.40;56.00;;;;;;5031727;28;20467;-76
2022/09/05 13:54:17;;;;;;;2.50;1.73;;;31.50;57.60;;;;;;5030845;28;20425;-76
2022/09/05 13:57:38;;;;;;;2.03;1.90;;;31.40;58.30;;;;;;5030895;28;20846;-76
2022/09/05 14:00:12;;;;;;;1.70;1.60;;;31.20;59.10;;;;;;4988570;28;20518;-76
2022/09/05 14:03:10;;;;;;;2.43;2.17;;;31.10;57.60;;;;;;4988373;28;20791;-77
2022/09/05 14:05:48;;;;;;;2.80;1.63;;;31.10;57.90;;;;;;5024308;28;20418;-77
2022/09/05 14:08:39;;;;;;;2.80;1.70;;;31.00;58.30;;;;;;5029244;28;20422;-79
2022/09/05 14:11:35;;;;;;;4.57;2.20;;;31.10;58.70;;;;;;5028984;28;21112;-78
2022/09/05 14:14:16;;;;;;;2.60;1.87;;;31.20;57.30;;;;;;5029940;28;20454;-77